sensor_id;sensor_type;location;lat;lon;timestamp;temperature;humidity
18974;DHT22;9621;48.690;9.466;2024-01-16T00:01:32;-1.50;99.90
18974;DHT22;9621;48.690;9.466;2024-01-16T00:04:01;-1.40;99.90
18974;DHT22;9621;48.690;9.466;2024-01-16T00:06:28;-1.40;99.90
18974;DHT22;9621;48.690;9.466;2024-01-16T00:08:55;-1.50;99.90
18974;DHT22;9621;48.690;9.466;2024-01-16T00:11:22;-1.50;99.90
18974;DHT22;9621;48.690;9.466;2024-01-16T00:13:48;-1.30;99.90
18974;DHT22;9621;48.690;9.466;2024-01-16T00:16:15;-1.50;99.90
18974;DHT22;9621;48.690;9.466;2024-01-16T00:18:42;-1.50;99.90
18974;DHT22;9621;48.690;9.466;2024-01-16T00:21:10;-1.50;99.90
18974;DHT22;9621;48.690;9.466;2024-01-16T00:23:37;-1.30;99.90
18974;DHT22;9621;48.690;9.466;2024-01-16T00:26:04;-1.50;99.90
18974;DHT22;9621;48.690;9.466;2024-01-16T00:28:31;-1.50;99.90
18974;DHT22;9621;48.690;9.466;2024-01-16T00:30:58;-1.50;99.90
18974;DHT22;9621;48.690;9.466;2024-01-16T00:33:25;-1.50;99.90
18974;DHT22;9621;48.690;9.466;2024-01-16T00:35:52;-1.50;99.90
18974;DHT22;9621;48.690;9.466;2024-01-16T00:38:21;-1.60;99.90
18974;DHT22;9621;48.690;9.466;2024-01-16T00:40:48;-1.50;99.90
18974;DHT22;9621;48.690;9.466;2024-01-16T00:43:15;-1.60;99.90
18974;DHT22;9621;48.690;9.466;2024-01-16T00:45:42;-1.60;99.90
18974;DHT22;9621;48.690;9.466;2024-01-16T00:48:09;-1.60;99.90
18974;DHT22;9621;48.690;9.466;2024-01-16T00:50:39;-1.60;99.90
18974;DHT22;9621;48.690;9.466;2024-01-16T00:53:06;-1.60;99.90
18974;DHT22;9621;48.690;9.466;2024-01-16T00:55:34;-1.60;99.90
18974;DHT22;9621;48.690;9.466;2024-01-16T00:58:01;-1.60;99.90
18974;DHT22;9621;48.690;9.466;2024-01-16T01:00:28;-1.60;99.90
18974;DHT22;9621;48.690;9.466;2024-01-16T01:02:56;-1.60;99.90
18974;DHT22;9621;48.690;9.466;2024-01-16T01:05:24;-1.60;99.90
18974;DHT22;9621;48.690;9.466;2024-01-16T01:07:54;-1.70;99.90
18974;DHT22;9621;48.690;9.466;2024-01-16T01:10:21;-1.70;99.90
18974;DHT22;9621;48.690;9.466;2024-01-16T01:12:50;-1.80;99.90
18974;DHT22;9621;48.690;9.466;2024-01-16T01:15:17;-1.80;99.90
18974;DHT22;9621;48.690;9.466;2024-01-16T01:17:44;-1.80;99.90
18974;DHT22;9621;48.690;9.466;2024-01-16T01:20:13;-1.90;99.90
18974;DHT22;9621;48.690;9.466;2024-01-16T01:22:40;-1.90;99.90
18974;DHT22;9621;48.690;9.466;2024-01-16T01:25:08;-1.90;99.90
18974;DHT22;9621;48.690;9.466;2024-01-16T01:27:35;-2.00;99.90
18974;DHT22;9621;48.690;9.466;2024-01-16T01:30:04;-2.00;99.90
18974;DHT22;9621;48.690;9.466;2024-01-16T01:32:31;-2.00;99.90
18974;DHT22;9621;48.690;9.466;2024-01-16T01:34:59;-2.00;99.90
18974;DHT22;9621;48.690;9.466;2024-01-16T01:37:26;-2.00;99.90
18974;DHT22;9621;48.690;9.466;2024-01-16T01:39:53;-2.10;99.90
18974;DHT22;9621;48.690;9.466;2024-01-16T01:42:20;-2.00;99.90
18974;DHT22;9621;48.690;9.466;2024-01-16T01:44:47;-2.00;99.90
18974;DHT22;9621;48.690;9.466;2024-01-16T01:47:15;-2.00;99.90
18974;DHT22;9621;48.690;9.466;2024-01-16T01:49:43;-2.00;99.90
18974;DHT22;9621;48.690;9.466;2024-01-16T01:52:10;-2.00;99.90
18974;DHT22;9621;48.690;9.466;2024-01-16T01:54:38;-1.90;99.90
18974;DHT22;9621;48.690;9.466;2024-01-16T01:57:08;-2.00;99.90
18974;DHT22;9621;48.690;9.466;2024-01-16T01:59:36;-2.00;99.90
18974;DHT22;9621;48.690;9.466;2024-01-16T02:02:04;-1.90;99.90
18974;DHT22;9621;48.690;9.466;2024-01-16T02:04:33;-1.90;99.90
18974;DHT22;9621;48.690;9.466;2024-01-16T02:07:00;-2.00;99.90
18974;DHT22;9621;48.690;9.466;2024-01-16T02:09:28;-2.00;99.90
18974;DHT22;9621;48.690;9.466;2024-01-16T02:11:55;-1.70;99.90
18974;DHT22;9621;48.690;9.466;2024-01-16T02:14:22;-1.90;99.90
18974;DHT22;9621;48.690;9.466;2024-01-16T02:16:49;-2.00;99.90
18974;DHT22;9621;48.690;9.466;2024-01-16T02:19:16;-1.90;99.90
18974;DHT22;9621;48.690;9.466;2024-01-16T02:21:47;-1.60;99.90
18974;DHT22;9621;48.690;9.466;2024-01-16T02:24:16;-1.90;99.90
18974;DHT22;9621;48.690;9.466;2024-01-16T02:26:44;-1.90;99.90
18974;DHT22;9621;48.690;9.466;2024-01-16T02:29:11;-1.90;99.90
18974;DHT22;9621;48.690;9.466;2024-01-16T02:31:38;-1.90;99.90
18974;DHT22;9621;48.690;9.466;2024-01-16T02:34:05;-1.90;99.90
18974;DHT22;9621;48.690;9.466;2024-01-16T02:36:32;-1.90;99.90
18974;DHT22;9621;48.690;9.466;2024-01-16T02:38:59;-1.80;99.90
18974;DHT22;9621;48.690;9.466;2024-01-16T02:41:27;-1.90;99.90
18974;DHT22;9621;48.690;9.466;2024-01-16T02:43:54;-1.90;99.90
18974;DHT22;9621;48.690;9.466;2024-01-16T02:46:22;-1.90;99.90
18974;DHT22;9621;48.690;9.466;2024-01-16T02:48:48;-2.00;99.90
18974;DHT22;9621;48.690;9.466;2024-01-16T02:51:15;-2.00;99.90
18974;DHT22;9621;48.690;9.466;2024-01-16T02:53:45;-2.00;99.90
18974;DHT22;9621;48.690;9.466;2024-01-16T02:56:12;-2.10;99.90
18974;DHT22;9621;48.690;9.466;2024-01-16T02:58:40;-2.10;99.90
18974;DHT22;9621;48.690;9.466;2024-01-16T03:01:07;-2.10;99.90
18974;DHT22;9621;48.690;9.466;2024-01-16T03:03:36;-2.10;99.90
18974;DHT22;9621;48.690;9.466;2024-01-16T03:06:03;-2.10;99.90
18974;DHT22;9621;48.690;9.466;2024-01-16T03:08:30;-2.20;99.90
18974;DHT22;9621;48.690;9.466;2024-01-16T03:10:57;-2.30;99.90
18974;DHT22;9621;48.690;9.466;2024-01-16T03:13:24;-2.30;99.90
18974;DHT22;9621;48.690;9.466;2024-01-16T03:15:52;-2.40;99.90
18974;DHT22;9621;48.690;9.466;2024-01-16T03:18:19;-2.40;99.90
18974;DHT22;9621;48.690;9.466;2024-01-16T03:20:46;-2.30;99.90
18974;DHT22;9621;48.690;9.466;2024-01-16T03:23:13;-2.50;99.90
18974;DHT22;9621;48.690;9.466;2024-01-16T03:25:40;-2.40;99.90
18974;DHT22;9621;48.690;9.466;2024-01-16T03:28:08;-2.60;99.90
18974;DHT22;9621;48.690;9.466;2024-01-16T03:30:36;-2.50;99.90
18974;DHT22;9621;48.690;9.466;2024-01-16T03:33:04;-2.70;99.90
18974;DHT22;9621;48.690;9.466;2024-01-16T03:35:31;-2.70;99.90
18974;DHT22;9621;48.690;9.466;2024-01-16T03:37:58;-1.80;99.90
18974;DHT22;9621;48.690;9.466;2024-01-16T03:40:24;-2.80;99.90
18974;DHT22;9621;48.690;9.466;2024-01-16T03:42:51;-2.90;99.90
18974;DHT22;9621;48.690;9.466;2024-01-16T03:45:18;-3.00;99.90
18974;DHT22;9621;48.690;9.466;2024-01-16T03:47:45;-2.90;99.90
18974;DHT22;9621;48.690;9.466;2024-01-16T03:50:13;-2.80;99.90
18974;DHT22;9621;48.690;9.466;2024-01-16T03:52:42;-3.00;99.90
18974;DHT22;9621;48.690;9.466;2024-01-16T03:55:09;-2.70;99.90
18974;DHT22;9621;48.690;9.466;2024-01-16T03:57:35;-3.00;99.90
18974;DHT22;9621;48.690;9.466;2024-01-16T04:00:03;-2.20;99.90
18974;DHT22;9621;48.690;9.466;2024-01-16T04:02:31;-3.00;99.90
18974;DHT22;9621;48.690;9.466;2024-01-16T04:04:58;-2.90;99.90
18974;DHT22;9621;48.690;9.466;2024-01-16T04:07:26;-3.10;99.90
18974;DHT22;9621;48.690;9.466;2024-01-16T04:09:53;-3.10;99.90
18974;DHT22;9621;48.690;9.466;2024-01-16T04:12:20;-3.20;99.90
18974;DHT22;9621;48.690;9.466;2024-01-16T04:14:47;-3.30;99.90
18974;DHT22;9621;48.690;9.466;2024-01-16T04:17:14;-3.40;99.90
18974;DHT22;9621;48.690;9.466;2024-01-16T04:19:40;-2.40;99.90
18974;DHT22;9621;48.690;9.466;2024-01-16T04:22:07;-3.60;99.90
18974;DHT22;9621;48.690;9.466;2024-01-16T04:24:36;-3.70;99.90
18974;DHT22;9621;48.690;9.466;2024-01-16T04:27:03;-3.50;99.90
18974;DHT22;9621;48.690;9.466;2024-01-16T04:29:30;-4.00;99.90
18974;DHT22;9621;48.690;9.466;2024-01-16T04:31:57;-4.00;99.90
18974;DHT22;9621;48.690;9.466;2024-01-16T04:34:24;-4.20;99.90
18974;DHT22;9621;48.690;9.466;2024-01-16T04:36:51;-4.40;99.90
18974;DHT22;9621;48.690;9.466;2024-01-16T04:39:17;-4.40;99.90
18974;DHT22;9621;48.690;9.466;2024-01-16T04:41:46;-4.60;99.90
18974;DHT22;9621;48.690;9.466;2024-01-16T04:44:13;-4.70;99.90
18974;DHT22;9621;48.690;9.466;2024-01-16T04:46:41;-4.50;99.90
18974;DHT22;9621;48.690;9.466;2024-01-16T04:49:08;-4.90;99.90
18974;DHT22;9621;48.690;9.466;2024-01-16T04:51:35;-5.00;99.90
18974;DHT22;9621;48.690;9.466;2024-01-16T04:54:02;-5.00;99.90
18974;DHT22;9621;48.690;9.466;2024-01-16T04:56:29;-5.10;99.90
18974;DHT22;9621;48.690;9.466;2024-01-16T04:58:58;-5.10;99.90
18974;DHT22;9621;48.690;9.466;2024-01-16T05:01:25;-5.10;99.90
18974;DHT22;9621;48.690;9.466;2024-01-16T05:03:52;-5.20;99.90
18974;DHT22;9621;48.690;9.466;2024-01-16T05:06:20;-4.90;99.90
18974;DHT22;9621;48.690;9.466;2024-01-16T05:08:47;-5.10;99.90
18974;DHT22;9621;48.690;9.466;2024-01-16T05:11:14;-5.00;99.90
18974;DHT22;9621;48.690;9.466;2024-01-16T05:13:41;-5.00;99.90
18974;DHT22;9621;48.690;9.466;2024-01-16T05:16:10;-5.10;99.90
18974;DHT22;9621;48.690;9.466;2024-01-16T05:18:37;-5.10;99.90
18974;DHT22;9621;48.690;9.466;2024-01-16T05:21:04;-5.10;99.90
18974;DHT22;9621;48.690;9.466;2024-01-16T05:23:32;-5.10;99.90
18974;DHT22;9621;48.690;9.466;2024-01-16T05:25:59;-5.20;99.90
18974;DHT22;9621;48.690;9.466;2024-01-16T05:28:26;-5.20;99.90
18974;DHT22;9621;48.690;9.466;2024-01-16T05:30:53;-5.30;99.90
18974;DHT22;9621;48.690;9.466;2024-01-16T05:33:21;-5.30;99.90
18974;DHT22;9621;48.690;9.466;2024-01-16T05:35:48;-5.30;99.90
18974;DHT22;9621;48.690;9.466;2024-01-16T05:38:15;-5.40;99.90
18974;DHT22;9621;48.690;9.466;2024-01-16T05:40:42;-5.30;99.90
18974;DHT22;9621;48.690;9.466;2024-01-16T05:43:09;-5.40;99.90
18974;DHT22;9621;48.690;9.466;2024-01-16T05:45:35;-5.50;99.90
18974;DHT22;9621;48.690;9.466;2024-01-16T05:48:03;-5.50;99.90
18974;DHT22;9621;48.690;9.466;2024-01-16T05:50:34;-5.60;99.90
18974;DHT22;9621;48.690;9.466;2024-01-16T05:53:00;-5.60;99.90
18974;DHT22;9621;48.690;9.466;2024-01-16T05:55:27;-5.70;99.90
18974;DHT22;9621;48.690;9.466;2024-01-16T05:57:57;-5.70;99.90
18974;DHT22;9621;48.690;9.466;2024-01-16T06:00:25;-5.60;99.90
18974;DHT22;9621;48.690;9.466;2024-01-16T06:02:52;-5.70;99.90
18974;DHT22;9621;48.690;9.466;2024-01-16T06:05:18;-5.70;99.90
18974;DHT22;9621;48.690;9.466;2024-01-16T06:07:47;-5.80;99.90
18974;DHT22;9621;48.690;9.466;2024-01-16T06:10:13;-5.80;99.90
18974;DHT22;9621;48.690;9.466;2024-01-16T06:12:40;-5.80;99.90
18974;DHT22;9621;48.690;9.466;2024-01-16T06:15:08;-5.90;99.90
18974;DHT22;9621;48.690;9.466;2024-01-16T06:17:37;-5.80;99.90
18974;DHT22;9621;48.690;9.466;2024-01-16T06:20:05;-5.80;99.90
18974;DHT22;9621;48.690;9.466;2024-01-16T06:22:32;-5.80;99.90
18974;DHT22;9621;48.690;9.466;2024-01-16T06:25:00;-5.80;99.90
18974;DHT22;9621;48.690;9.466;2024-01-16T06:27:28;-5.80;99.90
18974;DHT22;9621;48.690;9.466;2024-01-16T06:29:55;-5.70;99.90
18974;DHT22;9621;48.690;9.466;2024-01-16T06:32:22;-5.80;99.90
18974;DHT22;9621;48.690;9.466;2024-01-16T06:34:49;-5.70;99.90
18974;DHT22;9621;48.690;9.466;2024-01-16T06:37:16;-5.70;99.90
18974;DHT22;9621;48.690;9.466;2024-01-16T06:39:42;-5.70;99.90
18974;DHT22;9621;48.690;9.466;2024-01-16T06:42:11;-5.70;99.90
18974;DHT22;9621;48.690;9.466;2024-01-16T06:44:38;-5.70;99.90
18974;DHT22;9621;48.690;9.466;2024-01-16T06:47:05;-5.70;99.90
18974;DHT22;9621;48.690;9.466;2024-01-16T06:49:31;-5.60;99.90
18974;DHT22;9621;48.690;9.466;2024-01-16T06:51:58;-5.60;99.90
18974;DHT22;9621;48.690;9.466;2024-01-16T06:54:25;-5.60;99.90
18974;DHT22;9621;48.690;9.466;2024-01-16T06:56:52;-5.50;99.90
18974;DHT22;9621;48.690;9.466;2024-01-16T06:59:20;-5.40;99.90
18974;DHT22;9621;48.690;9.466;2024-01-16T07:01:48;-5.20;99.90
18974;DHT22;9621;48.690;9.466;2024-01-16T07:04:15;-5.30;99.90
18974;DHT22;9621;48.690;9.466;2024-01-16T07:06:42;-5.30;99.90
18974;DHT22;9621;48.690;9.466;2024-01-16T07:09:09;-5.20;99.90
18974;DHT22;9621;48.690;9.466;2024-01-16T07:11:37;-5.20;99.90
18974;DHT22;9621;48.690;9.466;2024-01-16T07:14:08;-5.20;99.90
18974;DHT22;9621;48.690;9.466;2024-01-16T07:16:37;-5.10;99.90
18974;DHT22;9621;48.690;9.466;2024-01-16T07:19:04;-5.20;99.90
18974;DHT22;9621;48.690;9.466;2024-01-16T07:21:31;-5.20;99.90
18974;DHT22;9621;48.690;9.466;2024-01-16T07:23:59;-5.10;99.90
18974;DHT22;9621;48.690;9.466;2024-01-16T07:26:26;-5.20;99.90
18974;DHT22;9621;48.690;9.466;2024-01-16T07:28:53;-5.20;99.90
18974;DHT22;9621;48.690;9.466;2024-01-16T07:31:20;-5.20;99.90
18974;DHT22;9621;48.690;9.466;2024-01-16T07:33:48;-5.20;99.90
18974;DHT22;9621;48.690;9.466;2024-01-16T07:36:15;-5.20;99.90
18974;DHT22;9621;48.690;9.466;2024-01-16T07:38:42;-5.20;99.90
18974;DHT22;9621;48.690;9.466;2024-01-16T07:41:09;-5.20;99.90
18974;DHT22;9621;48.690;9.466;2024-01-16T07:43:36;-5.20;99.90
18974;DHT22;9621;48.690;9.466;2024-01-16T07:46:03;-5.20;99.90
18974;DHT22;9621;48.690;9.466;2024-01-16T07:48:30;-5.10;99.90
18974;DHT22;9621;48.690;9.466;2024-01-16T07:50:58;-5.10;99.90
18974;DHT22;9621;48.690;9.466;2024-01-16T07:53:25;-5.00;99.90
18974;DHT22;9621;48.690;9.466;2024-01-16T07:55:53;-5.00;99.90
18974;DHT22;9621;48.690;9.466;2024-01-16T07:58:21;-4.90;99.90
18974;DHT22;9621;48.690;9.466;2024-01-16T08:00:48;-4.80;99.90
18974;DHT22;9621;48.690;9.466;2024-01-16T08:03:15;-4.70;99.90
18974;DHT22;9621;48.690;9.466;2024-01-16T08:05:42;-4.60;99.90
18974;DHT22;9621;48.690;9.466;2024-01-16T08:08:10;-4.50;99.90
18974;DHT22;9621;48.690;9.466;2024-01-16T08:10:37;-4.50;99.90
18974;DHT22;9621;48.690;9.466;2024-01-16T08:13:04;-4.40;99.90
18974;DHT22;9621;48.690;9.466;2024-01-16T08:15:31;-4.30;99.90
18974;DHT22;9621;48.690;9.466;2024-01-16T08:17:58;-4.20;99.90
18974;DHT22;9621;48.690;9.466;2024-01-16T08:20:25;-4.20;99.90
18974;DHT22;9621;48.690;9.466;2024-01-16T08:22:53;-4.10;99.90
18974;DHT22;9621;48.690;9.466;2024-01-16T08:25:21;-4.00;99.90
18974;DHT22;9621;48.690;9.466;2024-01-16T08:27:48;-3.90;99.90
18974;DHT22;9621;48.690;9.466;2024-01-16T08:30:15;-3.80;99.90
18974;DHT22;9621;48.690;9.466;2024-01-16T08:32:42;-3.70;99.90
18974;DHT22;9621;48.690;9.466;2024-01-16T08:35:09;-3.60;99.90
18974;DHT22;9621;48.690;9.466;2024-01-16T08:37:36;-3.40;99.90
18974;DHT22;9621;48.690;9.466;2024-01-16T08:40:03;-3.20;99.90
18974;DHT22;9621;48.690;9.466;2024-01-16T08:42:32;-3.00;99.90
18974;DHT22;9621;48.690;9.466;2024-01-16T08:44:59;-2.70;99.90
18974;DHT22;9621;48.690;9.466;2024-01-16T08:47:26;-2.60;99.90
18974;DHT22;9621;48.690;9.466;2024-01-16T08:49:53;-2.40;99.90
18974;DHT22;9621;48.690;9.466;2024-01-16T08:52:20;-2.30;99.90
18974;DHT22;9621;48.690;9.466;2024-01-16T08:54:49;-2.20;99.90
18974;DHT22;9621;48.690;9.466;2024-01-16T08:57:16;-2.20;99.90
18974;DHT22;9621;48.690;9.466;2024-01-16T08:59:44;-2.00;99.90
18974;DHT22;9621;48.690;9.466;2024-01-16T09:02:11;-2.00;99.90
18974;DHT22;9621;48.690;9.466;2024-01-16T09:04:40;-1.90;99.90
18974;DHT22;9621;48.690;9.466;2024-01-16T09:07:07;-1.80;99.90
18974;DHT22;9621;48.690;9.466;2024-01-16T09:09:34;-1.70;99.90
18974;DHT22;9621;48.690;9.466;2024-01-16T09:12:01;-1.70;99.90
18974;DHT22;9621;48.690;9.466;2024-01-16T09:14:29;-1.60;99.90
18974;DHT22;9621;48.690;9.466;2024-01-16T09:16:57;-1.60;99.90
18974;DHT22;9621;48.690;9.466;2024-01-16T09:19:24;-1.50;99.90
18974;DHT22;9621;48.690;9.466;2024-01-16T09:21:51;-1.50;99.90
18974;DHT22;9621;48.690;9.466;2024-01-16T09:24:18;-1.50;99.90
18974;DHT22;9621;48.690;9.466;2024-01-16T09:26:45;-1.40;99.90
18974;DHT22;9621;48.690;9.466;2024-01-16T09:29:13;-1.30;99.90
18974;DHT22;9621;48.690;9.466;2024-01-16T09:31:41;-1.30;99.90
18974;DHT22;9621;48.690;9.466;2024-01-16T09:34:10;-1.30;99.90
18974;DHT22;9621;48.690;9.466;2024-01-16T09:36:39;-1.30;99.90
18974;DHT22;9621;48.690;9.466;2024-01-16T09:39:06;-1.20;99.90
18974;DHT22;9621;48.690;9.466;2024-01-16T09:41:34;-1.20;99.90
18974;DHT22;9621;48.690;9.466;2024-01-16T09:44:01;-1.20;99.90
18974;DHT22;9621;48.690;9.466;2024-01-16T09:46:30;-1.20;99.90
18974;DHT22;9621;48.690;9.466;2024-01-16T09:48:59;-1.10;99.90
18974;DHT22;9621;48.690;9.466;2024-01-16T09:51:28;-1.00;99.90
18974;DHT22;9621;48.690;9.466;2024-01-16T09:53:56;-0.70;99.90
18974;DHT22;9621;48.690;9.466;2024-01-16T09:56:24;-0.60;99.90
18974;DHT22;9621;48.690;9.466;2024-01-16T09:59:00;-0.30;99.90
18974;DHT22;9621;48.690;9.466;2024-01-16T10:01:31;-0.10;99.90
18974;DHT22;9621;48.690;9.466;2024-01-16T10:03:59;0.20;99.90
18974;DHT22;9621;48.690;9.466;2024-01-16T10:06:30;0.50;99.90
18974;DHT22;9621;48.690;9.466;2024-01-16T10:08:58;0.80;99.90
18974;DHT22;9621;48.690;9.466;2024-01-16T10:11:25;1.10;99.90
18974;DHT22;9621;48.690;9.466;2024-01-16T10:13:52;1.30;99.90
18974;DHT22;9621;48.690;9.466;2024-01-16T10:16:19;1.50;99.90
18974;DHT22;9621;48.690;9.466;2024-01-16T10:18:47;1.60;99.90
18974;DHT22;9621;48.690;9.466;2024-01-16T10:21:20;1.80;99.90
18974;DHT22;9621;48.690;9.466;2024-01-16T10:23:49;2.10;99.90
18974;DHT22;9621;48.690;9.466;2024-01-16T10:26:16;2.50;99.90
18974;DHT22;9621;48.690;9.466;2024-01-16T10:28:47;2.90;99.90
18974;DHT22;9621;48.690;9.466;2024-01-16T10:31:14;3.30;99.90
18974;DHT22;9621;48.690;9.466;2024-01-16T10:33:41;3.80;99.90
18974;DHT22;9621;48.690;9.466;2024-01-16T10:36:12;4.40;99.90
18974;DHT22;9621;48.690;9.466;2024-01-16T10:38:41;4.90;99.90
18974;DHT22;9621;48.690;9.466;2024-01-16T10:41:11;5.30;99.90
18974;DHT22;9621;48.690;9.466;2024-01-16T10:43:38;5.60;99.90
18974;DHT22;9621;48.690;9.466;2024-01-16T10:46:09;5.90;99.90
18974;DHT22;9621;48.690;9.466;2024-01-16T10:48:38;6.10;99.80
18974;DHT22;9621;48.690;9.466;2024-01-16T10:51:06;6.30;99.90
18974;DHT22;9621;48.690;9.466;2024-01-16T10:53:34;6.40;99.70
18974;DHT22;9621;48.690;9.466;2024-01-16T10:56:02;6.60;99.90
18974;DHT22;9621;48.690;9.466;2024-01-16T10:58:36;6.70;99.70
18974;DHT22;9621;48.690;9.466;2024-01-16T11:01:06;7.00;98.40
18974;DHT22;9621;48.690;9.466;2024-01-16T11:03:40;7.40;98.50
18974;DHT22;9621;48.690;9.466;2024-01-16T11:06:10;7.70;96.70
18974;DHT22;9621;48.690;9.466;2024-01-16T11:08:39;7.90;97.40
18974;DHT22;9621;48.690;9.466;2024-01-16T11:11:06;7.90;97.00
18974;DHT22;9621;48.690;9.466;2024-01-16T11:13:36;7.60;96.40
18974;DHT22;9621;48.690;9.466;2024-01-16T11:16:04;7.20;95.30
18974;DHT22;9621;48.690;9.466;2024-01-16T11:18:34;6.80;95.80
18974;DHT22;9621;48.690;9.466;2024-01-16T11:21:04;6.50;96.40
18974;DHT22;9621;48.690;9.466;2024-01-16T11:23:31;6.40;96.50
18974;DHT22;9621;48.690;9.466;2024-01-16T11:26:00;6.70;97.30
18974;DHT22;9621;48.690;9.466;2024-01-16T11:28:48;7.00;97.40
18974;DHT22;9621;48.690;9.466;2024-01-16T11:31:28;7.60;96.70
18974;DHT22;9621;48.690;9.466;2024-01-16T11:33:55;8.10;94.70
18974;DHT22;9621;48.690;9.466;2024-01-16T11:36:47;8.50;96.70
18974;DHT22;9621;48.690;9.466;2024-01-16T11:39:19;8.90;93.90
18974;DHT22;9621;48.690;9.466;2024-01-16T11:41:56;9.20;94.40
18974;DHT22;9621;48.690;9.466;2024-01-16T11:44:43;9.50;94.30
18974;DHT22;9621;48.690;9.466;2024-01-16T11:47:22;10.00;92.30
18974;DHT22;9621;48.690;9.466;2024-01-16T11:49:50;10.40;92.20
18974;DHT22;9621;48.690;9.466;2024-01-16T11:52:42;10.80;93.20
18974;DHT22;9621;48.690;9.466;2024-01-16T11:55:28;11.20;90.00
18974;DHT22;9621;48.690;9.466;2024-01-16T11:58:21;11.50;90.20
18974;DHT22;9621;48.690;9.466;2024-01-16T12:00:52;11.80;90.30
18974;DHT22;9621;48.690;9.466;2024-01-16T12:03:23;12.10;90.90
18974;DHT22;9621;48.690;9.466;2024-01-16T12:05:55;12.30;90.90
18974;DHT22;9621;48.690;9.466;2024-01-16T12:08:22;12.50;88.30
18974;DHT22;9621;48.690;9.466;2024-01-16T12:10:49;12.60;90.70
18974;DHT22;9621;48.690;9.466;2024-01-16T12:13:16;12.70;89.70
18974;DHT22;9621;48.690;9.466;2024-01-16T12:15:43;12.70;88.70
18974;DHT22;9621;48.690;9.466;2024-01-16T12:18:18;12.60;84.50
18974;DHT22;9621;48.690;9.466;2024-01-16T12:20:45;12.30;81.40
18974;DHT22;9621;48.690;9.466;2024-01-16T12:23:13;12.10;84.00
18974;DHT22;9621;48.690;9.466;2024-01-16T12:25:40;11.90;82.00
18974;DHT22;9621;48.690;9.466;2024-01-16T12:28:08;11.80;83.70
18974;DHT22;9621;48.690;9.466;2024-01-16T12:30:37;11.70;83.90
18974;DHT22;9621;48.690;9.466;2024-01-16T12:33:05;11.70;83.10
18974;DHT22;9621;48.690;9.466;2024-01-16T12:35:37;11.70;82.50
18974;DHT22;9621;48.690;9.466;2024-01-16T12:38:05;11.80;79.70
18974;DHT22;9621;48.690;9.466;2024-01-16T12:40:35;11.90;82.90
18974;DHT22;9621;48.690;9.466;2024-01-16T12:43:04;12.10;82.90
18974;DHT22;9621;48.690;9.466;2024-01-16T12:45:31;12.30;79.70
18974;DHT22;9621;48.690;9.466;2024-01-16T12:48:00;12.50;81.20
18974;DHT22;9621;48.690;9.466;2024-01-16T12:50:30;12.70;79.70
18974;DHT22;9621;48.690;9.466;2024-01-16T12:53:06;12.80;80.60
18974;DHT22;9621;48.690;9.466;2024-01-16T12:55:34;13.10;77.80
18974;DHT22;9621;48.690;9.466;2024-01-16T12:58:15;13.10;76.50
18974;DHT22;9621;48.690;9.466;2024-01-16T13:00:42;12.90;71.40
18974;DHT22;9621;48.690;9.466;2024-01-16T13:03:15;12.60;75.60
18974;DHT22;9621;48.690;9.466;2024-01-16T13:05:42;12.20;72.00
18974;DHT22;9621;48.690;9.466;2024-01-16T13:08:17;11.90;73.90
18974;DHT22;9621;48.690;9.466;2024-01-16T13:10:44;11.40;70.70
18974;DHT22;9621;48.690;9.466;2024-01-16T13:13:12;11.00;72.70
18974;DHT22;9621;48.690;9.466;2024-01-16T13:15:39;10.40;71.90
18974;DHT22;9621;48.690;9.466;2024-01-16T13:18:16;9.80;73.20
18974;DHT22;9621;48.690;9.466;2024-01-16T13:20:43;9.10;73.60
18974;DHT22;9621;48.690;9.466;2024-01-16T13:23:12;8.30;74.00
18974;DHT22;9621;48.690;9.466;2024-01-16T13:25:42;7.70;73.90
18974;DHT22;9621;48.690;9.466;2024-01-16T13:28:09;7.10;75.00
18974;DHT22;9621;48.690;9.466;2024-01-16T13:30:36;6.50;76.30
18974;DHT22;9621;48.690;9.466;2024-01-16T13:33:04;6.00;77.50
18974;DHT22;9621;48.690;9.466;2024-01-16T13:35:31;5.60;76.90
18974;DHT22;9621;48.690;9.466;2024-01-16T13:37:58;5.20;78.70
18974;DHT22;9621;48.690;9.466;2024-01-16T13:40:27;4.90;79.30
18974;DHT22;9621;48.690;9.466;2024-01-16T13:42:54;4.80;79.50
18974;DHT22;9621;48.690;9.466;2024-01-16T13:45:20;4.50;80.50
18974;DHT22;9621;48.690;9.466;2024-01-16T13:47:48;4.40;80.60
18974;DHT22;9621;48.690;9.466;2024-01-16T13:50:15;4.20;81.00
18974;DHT22;9621;48.690;9.466;2024-01-16T13:52:43;4.10;81.00
18974;DHT22;9621;48.690;9.466;2024-01-16T13:55:09;4.00;81.50
18974;DHT22;9621;48.690;9.466;2024-01-16T13:57:38;3.70;81.50
18974;DHT22;9621;48.690;9.466;2024-01-16T14:00:07;3.60;81.30
18974;DHT22;9621;48.690;9.466;2024-01-16T14:02:38;3.40;80.90
18974;DHT22;9621;48.690;9.466;2024-01-16T14:05:07;3.20;81.60
18974;DHT22;9621;48.690;9.466;2024-01-16T14:07:36;3.00;81.40
18974;DHT22;9621;48.690;9.466;2024-01-16T14:10:04;2.80;81.90
18974;DHT22;9621;48.690;9.466;2024-01-16T14:12:32;2.60;82.30
18974;DHT22;9621;48.690;9.466;2024-01-16T14:15:00;2.40;82.80
18974;DHT22;9621;48.690;9.466;2024-01-16T14:17:28;2.30;82.80
18974;DHT22;9621;48.690;9.466;2024-01-16T14:19:55;2.20;83.50
18974;DHT22;9621;48.690;9.466;2024-01-16T14:22:22;2.10;83.60
18974;DHT22;9621;48.690;9.466;2024-01-16T14:24:49;2.00;83.90
18974;DHT22;9621;48.690;9.466;2024-01-16T14:27:16;1.90;83.90
18974;DHT22;9621;48.690;9.466;2024-01-16T14:29:44;1.80;83.80
18974;DHT22;9621;48.690;9.466;2024-01-16T14:32:13;1.80;84.00
18974;DHT22;9621;48.690;9.466;2024-01-16T14:34:40;1.60;83.70
18974;DHT22;9621;48.690;9.466;2024-01-16T14:37:09;1.50;84.30
18974;DHT22;9621;48.690;9.466;2024-01-16T14:39:37;1.40;84.40
18974;DHT22;9621;48.690;9.466;2024-01-16T14:42:04;1.30;84.80
18974;DHT22;9621;48.690;9.466;2024-01-16T14:44:33;1.20;84.90
18974;DHT22;9621;48.690;9.466;2024-01-16T14:46:59;1.00;84.90
18974;DHT22;9621;48.690;9.466;2024-01-16T14:49:28;0.90;85.10
18974;DHT22;9621;48.690;9.466;2024-01-16T14:51:57;0.80;85.00
18974;DHT22;9621;48.690;9.466;2024-01-16T14:54:24;0.70;85.50
18974;DHT22;9621;48.690;9.466;2024-01-16T14:56:51;0.60;85.40
18974;DHT22;9621;48.690;9.466;2024-01-16T14:59:18;0.60;85.50
18974;DHT22;9621;48.690;9.466;2024-01-16T15:01:45;0.40;85.80
18974;DHT22;9621;48.690;9.466;2024-01-16T15:04:12;0.40;86.10
18974;DHT22;9621;48.690;9.466;2024-01-16T15:06:40;0.20;86.30
18974;DHT22;9621;48.690;9.466;2024-01-16T15:09:07;0.20;86.60
18974;DHT22;9621;48.690;9.466;2024-01-16T15:11:35;0.10;86.90
18974;DHT22;9621;48.690;9.466;2024-01-16T15:14:02;0.10;87.10
18974;DHT22;9621;48.690;9.466;2024-01-16T15:16:30;-0.10;87.30
18974;DHT22;9621;48.690;9.466;2024-01-16T15:18:59;-0.20;87.50
18974;DHT22;9621;48.690;9.466;2024-01-16T15:21:26;-0.30;87.70
18974;DHT22;9621;48.690;9.466;2024-01-16T15:23:54;-0.50;87.70
18974;DHT22;9621;48.690;9.466;2024-01-16T15:26:21;-0.40;88.30
18974;DHT22;9621;48.690;9.466;2024-01-16T15:28:48;-0.60;88.40
18974;DHT22;9621;48.690;9.466;2024-01-16T15:31:15;-0.80;88.40
18974;DHT22;9621;48.690;9.466;2024-01-16T15:33:42;-0.90;88.60
18974;DHT22;9621;48.690;9.466;2024-01-16T15:36:09;-1.10;89.30
18974;DHT22;9621;48.690;9.466;2024-01-16T15:38:36;-1.20;89.70
18974;DHT22;9621;48.690;9.466;2024-01-16T15:41:05;-1.40;89.70
18974;DHT22;9621;48.690;9.466;2024-01-16T15:43:32;-1.50;89.70
18974;DHT22;9621;48.690;9.466;2024-01-16T15:45:59;-1.70;89.40
18974;DHT22;9621;48.690;9.466;2024-01-16T15:48:25;-1.90;89.70
18974;DHT22;9621;48.690;9.466;2024-01-16T15:50:58;-2.00;90.10
18974;DHT22;9621;48.690;9.466;2024-01-16T15:53:25;-2.20;90.20
18974;DHT22;9621;48.690;9.466;2024-01-16T15:55:52;-2.30;90.30